Time;durP1;ratioP1;P1;durP2;ratioP2;P2;SDS_P1;SDS_P2;PMS_P1;PMS_P2;Temp;Humidity;BMP_temperature;BMP_pressure;BME280_temperature;BME280_humidity;BME280_pressure;Samples;Min_cycle;Max_cycle;Signal;HPM_P1;HPM_P2
2023/04/01 00:00:22;;;;;;;5.45;0.28;;;8.70;99.90;;;;;;4951346;29;20440;-69
2023/04/01 00:02:48;;;;;;;3.45;0.40;;;8.60;99.90;;;;;;4948864;29;20061;-77
2023/04/01 00:05:14;;;;;;;1.45;0.10;;;8.70;99.90;;;;;;4950259;29;20075;-69
2023/04/01 00:07:40;;;;;;;3.15;0.35;;;8.60;99.90;;;;;;4963271;28;20054;-69
2023/04/01 00:10:09;;;;;;;2.20;0.30;;;8.50;99.90;;;;;;4963998;28;20027;-71
2023/04/01 00:12:35;;;;;;;4.05;0.30;;;8.50;99.90;;;;;;4956638;28;20074;-70
2023/04/01 00:15:02;;;;;;;2.67;0.82;;;8.50;99.90;;;;;;4947454;29;20043;-71
2023/04/01 00:17:28;;;;;;;2.42;0.50;;;8.50;99.90;;;;;;4949371;29;20106;-70
2023/04/01 00:19:57;;;;;;;2.58;0.45;;;8.50;99.90;;;;;;4933608;29;20122;-73
2023/04/01 00:22:24;;;;;;;2.03;0.32;;;8.50;99.90;;;;;;4947910;29;20383;-70
2023/04/01 00:24:49;;;;;;;2.67;0.40;;;8.50;99.90;;;;;;4948107;29;20074;-76
2023/04/01 00:27:16;;;;;;;2.25;0.30;;;8.50;99.90;;;;;;4949218;29;20059;-69
2023/04/01 00:29:43;;;;;;;5.00;0.30;;;8.50;99.90;;;;;;4950448;29;20535;-71
2023/04/01 00:32:09;;;;;;;3.78;0.85;;;8.50;99.90;;;;;;4949489;29;20035;-69
2023/04/01 00:34:35;;;;;;;4.75;0.40;;;8.50;99.90;;;;;;4950056;29;20039;-71
2023/04/01 00:37:00;;;;;;;1.98;0.35;;;8.50;99.90;;;;;;4948892;29;20089;-70
2023/04/01 00:39:29;;;;;;;4.82;0.30;;;8.50;99.90;;;;;;4949730;29;20484;-70
2023/04/01 00:41:56;;;;;;;6.18;0.45;;;8.50;99.90;;;;;;4950557;29;20494;-70
2023/04/01 00:44:36;;;;;;;2.78;0.30;;;8.50;99.90;;;;;;4929223;29;20058;-70
2023/04/01 00:47:02;;;;;;;1.23;0.40;;;8.50;99.90;;;;;;4934590;29;20047;-70
2023/04/01 00:49:35;;;;;;;2.28;0.30;;;8.50;99.90;;;;;;4950464;29;20058;-70
2023/04/01 00:52:04;;;;;;;3.30;0.35;;;8.40;99.90;;;;;;4948898;29;20038;-72
2023/04/01 00:54:30;;;;;;;1.95;0.47;;;8.40;99.90;;;;;;4947293;28;20493;-69
2023/04/01 00:57:00;;;;;;;5.07;0.43;;;8.50;99.90;;;;;;4948791;28;20094;-71
2023/04/01 00:59:36;;;;;;;4.68;0.43;;;8.50;99.90;;;;;;4947677;28;20062;-71
2023/04/01 01:02:06;;;;;;;2.55;0.30;;;8.60;99.90;;;;;;4945859;28;20047;-68
2023/04/01 01:04:33;;;;;;;3.15;0.40;;;8.50;99.90;;;;;;4949749;28;20043;-70
2023/04/01 01:07:19;;;;;;;2.78;0.52;;;8.50;99.90;;;;;;4948758;29;20555;-73
2023/04/01 01:10:00;;;;;;;8.93;0.50;;;8.60;99.90;;;;;;4921474;29;20035;-69
2023/04/01 01:12:54;;;;;;;2.05;0.38;;;8.60;99.90;;;;;;4947858;28;20031;-70
2023/04/01 01:15:22;;;;;;;2.30;0.35;;;8.50;99.90;;;;;;4930347;29;20510;-73
2023/04/01 01:17:53;;;;;;;7.85;0.63;;;8.50;99.90;;;;;;4948895;29;20039;-70
2023/04/01 01:21:00;;;;;;;2.50;0.35;;;8.50;99.90;;;;;;4949977;29;20107;-67
2023/04/01 01:23:47;;;;;;;1.25;0.25;;;8.40;99.90;;;;;;4941564;28;20078;-71
2023/04/01 01:26:32;;;;;;;3.03;0.30;;;8.50;99.90;;;;;;4948590;29;20035;-70
2023/04/01 01:29:28;;;;;;;2.78;0.30;;;8.50;99.90;;;;;;4951379;29;20384;-71
2023/04/01 01:32:00;;;;;;;2.15;0.22;;;8.50;99.90;;;;;;4953242;29;20114;-77
2023/04/01 01:34:48;;;;;;;4.07;0.20;;;8.50;99.90;;;;;;4953183;29;20034;-72
2023/04/01 01:37:18;;;;;;;3.88;0.30;;;8.50;99.90;;;;;;4953723;29;20054;-70
2023/04/01 01:39:55;;;;;;;1.90;0.28;;;8.40;99.90;;;;;;4948640;29;20031;-73
2023/04/01 01:42:22;;;;;;;2.08;0.28;;;8.40;99.90;;;;;;4952513;29;20070;-70
2023/04/01 01:44:50;;;;;;;2.63;0.30;;;8.40;99.90;;;;;;4953643;29;20038;-70
2023/04/01 01:47:18;;;;;;;3.42;0.30;;;8.30;99.90;;;;;;4952985;29;20526;-75
2023/04/01 01:49:45;;;;;;;0.77;0.15;;;8.30;99.90;;;;;;4949741;29;20038;-70
2023/04/01 01:52:12;;;;;;;1.02;0.20;;;8.20;99.90;;;;;;4951935;29;20027;-69
2023/04/01 01:54:48;;;;;;;5.78;0.30;;;8.20;99.90;;;;;;4952891;29;20102;-70
2023/04/01 01:57:16;;;;;;;2.70;0.50;;;8.20;99.90;;;;;;4935146;29;20027;-71
2023/04/01 01:59:43;;;;;;;0.43;0.15;;;8.10;99.90;;;;;;4952775;29;20062;-72
2023/04/01 02:02:10;;;;;;;3.28;0.17;;;8.10;99.90;;;;;;4919643;29;20044;-70
2023/04/01 02:04:40;;;;;;;1.55;0.28;;;8.10;99.90;;;;;;4941906;29;20078;-70
2023/04/01 02:07:11;;;;;;;1.13;0.28;;;8.10;99.90;;;;;;4952779;29;20035;-70
2023/04/01 02:09:38;;;;;;;1.88;0.35;;;8.10;99.90;;;;;;4954300;28;20058;-71
2023/04/01 02:12:08;;;;;;;2.20;0.85;;;8.10;99.90;;;;;;4951861;29;20027;-70
2023/04/01 02:14:43;;;;;;;3.17;0.40;;;8.10;99.90;;;;;;4953113;29;20035;-76
2023/04/01 02:17:16;;;;;;;2.45;0.40;;;8.10;99.90;;;;;;4949565;28;20039;-70
2023/04/01 02:19:52;;;;;;;0.35;0.20;;;8.00;99.90;;;;;;4945562;28;20028;-78
2023/04/01 02:22:24;;;;;;;2.50;0.40;;;8.00;99.90;;;;;;4945340;28;20027;-70
2023/04/01 02:24:56;;;;;;;2.35;0.30;;;7.90;99.90;;;;;;4950676;28;20047;-71
2023/04/01 02:27:23;;;;;;;1.33;0.22;;;7.80;99.90;;;;;;4952026;28;20190;-70
2023/04/01 02:29:49;;;;;;;3.85;0.38;;;7.80;99.90;;;;;;4952685;29;20027;-69
2023/04/01 02:32:16;;;;;;;3.63;0.68;;;7.80;99.90;;;;;;4951010;29;20029;-70
2023/04/01 02:34:42;;;;;;;2.20;0.25;;;7.80;99.90;;;;;;4952064;28;20589;-68
2023/04/01 02:37:08;;;;;;;4.85;0.52;;;7.70;99.90;;;;;;4935276;29;20070;-71
2023/04/01 02:39:34;;;;;;;3.30;0.30;;;7.70;99.90;;;;;;4936053;29;20121;-69
2023/04/01 02:42:00;;;;;;;3.03;0.30;;;7.70;99.90;;;;;;4959195;28;20039;-71
2023/04/01 02:44:26;;;;;;;2.97;0.30;;;7.70;99.90;;;;;;4933945;29;20031;-69
2023/04/01 02:46:52;;;;;;;2.47;0.10;;;7.70;99.90;;;;;;4931147;29;20412;-68
2023/04/01 02:49:18;;;;;;;1.65;0.25;;;7.60;99.90;;;;;;4916123;29;20837;-70
2023/04/01 02:51:43;;;;;;;3.03;0.30;;;7.60;99.90;;;;;;4933846;29;20032;-70
2023/04/01 02:54:09;;;;;;;1.48;0.30;;;7.60;99.90;;;;;;4941939;29;20038;-75
2023/04/01 02:56:35;;;;;;;2.30;0.40;;;7.60;99.90;;;;;;4950088;29;20103;-70
2023/04/01 02:59:00;;;;;;;4.18;0.30;;;7.60;99.90;;;;;;4951455;28;20034;-70
2023/04/01 03:01:26;;;;;;;0.93;0.20;;;7.60;99.90;;;;;;4957934;28;20094;-70
2023/04/01 03:03:52;;;;;;;3.50;0.20;;;7.60;99.90;;;;;;4951585;29;20412;-69
2023/04/01 03:06:18;;;;;;;0.38;0.10;;;7.70;99.90;;;;;;4950079;29;20035;-70
2023/04/01 03:08:44;;;;;;;1.45;0.20;;;7.70;99.90;;;;;;4950115;29;20043;-69
2023/04/01 03:11:10;;;;;;;2.08;0.17;;;7.60;99.90;;;;;;4951025;29;20031;-69
2023/04/01 03:13:36;;;;;;;1.30;0.20;;;7.60;99.90;;;;;;4951311;29;20034;-69
2023/04/01 03:16:02;;;;;;;0.60;0.15;;;7.60;99.90;;;;;;4943191;29;20086;-70
2023/04/01 03:18:28;;;;;;;0.70;0.15;;;7.70;99.90;;;;;;4937752;29;20031;-71
2023/04/01 03:20:53;;;;;;;1.92;0.20;;;7.70;99.90;;;;;;4933535;29;20051;-69
2023/04/01 03:23:20;;;;;;;0.08;0.00;;;7.60;99.90;;;;;;4945416;28;20029;-71
2023/04/01 03:25:46;;;;;;;2.38;0.25;;;7.70;99.90;;;;;;4971791;28;20057;-71
2023/04/01 03:28:13;;;;;;;1.00;0.10;;;7.70;99.90;;;;;;4964846;28;20559;-69
2023/04/01 03:30:39;;;;;;;1.55;0.22;;;7.70;99.90;;;;;;4949438;28;20340;-69
2023/04/01 03:33:05;;;;;;;0.43;0.13;;;7.60;99.90;;;;;;4945562;28;20113;-70
2023/04/01 03:35:31;;;;;;;0.30;0.08;;;7.70;99.90;;;;;;4951041;28;20043;-73
2023/04/01 03:37:57;;;;;;;1.95;0.10;;;7.60;99.90;;;;;;4950304;28;20023;-76
2023/04/01 03:40:23;;;;;;;1.08;0.10;;;7.70;99.90;;;;;;4950475;28;20046;-70
2023/04/01 03:42:49;;;;;;;0.85;0.10;;;7.60;99.90;;;;;;4951473;29;20715;-71
2023/04/01 03:45:15;;;;;;;1.58;0.00;;;7.50;99.90;;;;;;4948883;28;20472;-69
2023/04/01 03:47:41;;;;;;;0.40;0.17;;;7.50;99.90;;;;;;4951187;29;20047;-68
2023/04/01 03:50:07;;;;;;;0.30;0.00;;;7.50;99.90;;;;;;4950515;29;20502;-69
2023/04/01 03:52:34;;;;;;;2.03;0.10;;;7.60;99.90;;;;;;4951495;29;20115;-69
2023/04/01 03:55:01;;;;;;;0.40;0.20;;;7.60;99.90;;;;;;4949217;29;20559;-77
2023/04/01 03:57:26;;;;;;;0.85;0.30;;;7.50;99.90;;;;;;4951555;29;20045;-69
2023/04/01 03:59:52;;;;;;;2.35;0.10;;;7.50;99.90;;;;;;4951543;29;20027;-68
2023/04/01 04:02:18;;;;;;;0.38;0.10;;;7.60;99.90;;;;;;4950916;29;20027;-69
2023/04/01 04:04:43;;;;;;;0.38;0.00;;;7.60;99.90;;;;;;4950802;29;20825;-70
2023/04/01 04:07:09;;;;;;;2.75;0.20;;;7.60;99.90;;;;;;4949825;29;20089;-72
2023/04/01 04:09:35;;;;;;;1.20;0.10;;;7.60;99.90;;;;;;4950181;29;20023;-70
2023/04/01 04:12:01;;;;;;;2.60;0.10;;;7.50;99.90;;;;;;4951298;29;20062;-77
2023/04/01 04:14:26;;;;;;;2.55;0.10;;;7.40;99.90;;;;;;4947892;28;20058;-69
2023/04/01 04:16:52;;;;;;;0.10;0.08;;;7.40;99.90;;;;;;4945510;29;20043;-68
2023/04/01 04:19:18;;;;;;;2.33;0.10;;;7.50;99.90;;;;;;4945081;28;20439;-71
2023/04/01 04:21:43;;;;;;;3.38;0.10;;;7.50;99.90;;;;;;4946790;28;20743;-74
2023/04/01 04:24:10;;;;;;;0.05;0.00;;;7.50;99.90;;;;;;4951861;28;20031;-74
2023/04/01 04:26:36;;;;;;;1.60;0.10;;;7.40;99.90;;;;;;4951282;29;20376;-70
2023/04/01 04:29:02;;;;;;;1.77;0.10;;;7.40;99.90;;;;;;4944438;28;20125;-76
2023/04/01 04:31:28;;;;;;;0.22;0.10;;;7.40;99.90;;;;;;4949634;29;20082;-70
2023/04/01 04:33:54;;;;;;;2.00;0.10;;;7.30;99.90;;;;;;4929889;29;20532;-68
2023/04/01 04:36:21;;;;;;;0.82;0.10;;;7.30;99.90;;;;;;4949211;29;20042;-68
2023/04/01 04:38:47;;;;;;;0.15;0.03;;;7.30;99.90;;;;;;4942895;28;20028;-69
2023/04/01 04:41:15;;;;;;;0.20;0.00;;;7.30;99.90;;;;;;4950390;29;20058;-71
2023/04/01 04:43:41;;;;;;;0.93;0.30;;;7.20;99.90;;;;;;4929931;29;20036;-69
2023/04/01 04:46:10;;;;;;;2.00;0.52;;;7.30;99.90;;;;;;4936062;29;20110;-69
2023/04/01 04:48:36;;;;;;;0.20;0.10;;;7.30;99.90;;;;;;4946114;28;20063;-70
2023/04/01 04:51:03;;;;;;;1.60;0.10;;;7.30;99.90;;;;;;4949816;29;20051;-76
2023/04/01 04:53:29;;;;;;;1.40;0.08;;;7.30;99.90;;;;;;4947374;28;20038;-70
2023/04/01 04:55:54;;;;;;;1.85;0.10;;;7.40;99.90;;;;;;4950646;29;20043;-69
2023/04/01 04:58:20;;;;;;;0.43;0.13;;;7.40;99.90;;;;;;4946874;28;20452;-69
2023/04/01 05:00:46;;;;;;;0.35;0.08;;;7.40;99.90;;;;;;4947992;28;20031;-69
2023/04/01 05:03:13;;;;;;;0.17;0.00;;;7.40;99.90;;;;;;4943957;28;20038;-69
2023/04/01 05:05:48;;;;;;;0.22;0.10;;;7.40;99.90;;;;;;4950475;29;20031;-69
2023/04/01 05:08:13;;;;;;;2.88;0.10;;;7.40;99.90;;;;;;4947024;28;20042;-69
2023/04/01 05:10:39;;;;;;;1.75;0.10;;;7.30;99.90;;;;;;4949655;28;20035;-73
2023/04/01 05:13:05;;;;;;;1.38;0.20;;;7.30;99.90;;;;;;4949582;28;20027;-78
2023/04/01 05:15:30;;;;;;;0.43;0.10;;;7.40;99.90;;;;;;4948554;29;20480;-69
2023/04/01 05:17:56;;;;;;;1.27;0.20;;;7.40;99.90;;;;;;4929338;29;20040;-69
2023/04/01 05:20:22;;;;;;;0.93;0.10;;;7.40;99.90;;;;;;4938702;29;20638;-74
2023/04/01 05:22:47;;;;;;;0.70;0.15;;;7.40;99.90;;;;;;4949097;28;20035;-69
2023/04/01 05:25:13;;;;;;;1.45;0.25;;;7.40;99.90;;;;;;4948998;29;20106;-68
2023/04/01 05:27:39;;;;;;;1.98;0.20;;;7.50;99.90;;;;;;4943374;28;20039;-71
2023/04/01 05:30:06;;;;;;;2.22;0.15;;;7.50;99.90;;;;;;4930960;29;20032;-78
2023/04/01 05:32:32;;;;;;;2.33;0.28;;;7.50;99.90;;;;;;4947433;28;20031;-70
2023/04/01 05:34:57;;;;;;;1.08;0.20;;;7.40;99.90;;;;;;4948019;29;20468;-70
2023/04/01 05:37:23;;;;;;;1.67;0.30;;;7.50;99.90;;;;;;4948606;28;20062;-70
2023/04/01 05:39:49;;;;;;;1.58;0.20;;;7.50;99.90;;;;;;4949774;29;20024;-69
2023/04/01 05:42:15;;;;;;;0.90;0.10;;;7.60;99.90;;;;;;4947260;28;20976;-71
2023/04/01 05:44:41;;;;;;;4.45;0.20;;;7.60;99.90;;;;;;4950235;29;20110;-67
2023/04/01 05:47:06;;;;;;;5.50;0.40;;;7.60;99.90;;;;;;4928646;28;20051;-77
2023/04/01 05:49:33;;;;;;;1.50;0.43;;;7.70;99.90;;;;;;4964263;28;20046;-70
2023/04/01 05:51:59;;;;;;;2.10;0.30;;;7.70;99.90;;;;;;4952509;28;20214;-72
2023/04/01 05:54:25;;;;;;;2.25;0.30;;;7.70;99.90;;;;;;4930527;29;20142;-69
2023/04/01 05:56:50;;;;;;;2.00;0.40;;;7.80;99.90;;;;;;4931119;29;20028;-73
2023/04/01 05:59:16;;;;;;;1.63;0.32;;;7.80;99.90;;;;;;4947937;28;20110;-70
2023/04/01 06:01:42;;;;;;;1.48;0.20;;;7.80;99.90;;;;;;4951791;28;20038;-70
2023/04/01 06:04:15;;;;;;;1.33;0.17;;;7.90;99.90;;;;;;4949360;28;20031;-76
2023/04/01 06:06:41;;;;;;;1.33;0.20;;;7.90;99.90;;;;;;4932694;29;20471;-67
2023/04/01 06:09:27;;;;;;;3.10;0.20;;;8.00;99.90;;;;;;4942122;28;20031;-78
2023/04/01 06:12:24;;;;;;;1.20;0.20;;;8.00;99.90;;;;;;4956457;28;20480;-73
2023/04/01 06:15:08;;;;;;;0.40;0.20;;;8.00;99.90;;;;;;4945238;28;20082;-68
2023/04/01 06:17:43;;;;;;;1.92;0.28;;;8.00;99.90;;;;;;4952401;28;20039;-71
2023/04/01 06:20:26;;;;;;;2.30;0.20;;;8.10;99.90;;;;;;4953037;29;20031;-74
2023/04/01 06:23:10;;;;;;;1.55;0.20;;;8.10;99.90;;;;;;4947177;28;20539;-70
2023/04/01 06:25:58;;;;;;;1.83;0.30;;;8.10;99.90;;;;;;4934340;29;20059;-69
2023/04/01 06:28:56;;;;;;;1.08;0.20;;;8.10;99.90;;;;;;4943918;28;20138;-71
2023/04/01 11:29:11;;;;;;;2.17;0.40;;;8.10;99.90;;;;;;5092686;27;20714;-68
2023/04/01 11:31:55;;;;;;;1.33;0.50;;;8.10;99.90;;;;;;5085450;28;20043;-68
2023/04/01 11:34:23;;;;;;;1.83;0.40;;;8.10;99.90;;;;;;5085593;28;20032;-68
2023/04/01 11:37:18;;;;;;;3.53;0.55;;;8.20;99.90;;;;;;5085429;28;20144;-67
2023/04/01 11:40:03;;;;;;;1.42;0.40;;;8.20;99.90;;;;;;5089563;28;20432;-68
2023/04/01 11:42:44;;;;;;;1.10;0.40;;;8.20;99.90;;;;;;5078794;28;20376;-68
2023/04/01 11:45:20;;;;;;;0.63;0.30;;;8.20;99.90;;;;;;5086447;28;20544;-68
2023/04/01 11:48:15;;;;;;;0.63;0.30;;;8.20;99.90;;;;;;5085362;28;20032;-69
2023/04/01 11:51:04;;;;;;;1.02;0.50;;;8.20;99.90;;;;;;5057099;28;20063;-67
2023/04/01 11:54:13;;;;;;;0.97;0.40;;;8.20;99.90;;;;;;5076551;28;20024;-68
2023/04/01 11:56:52;;;;;;;1.58;0.40;;;8.20;99.90;;;;;;5042528;28;20479;-67
2023/04/01 11:59:52;;;;;;;1.35;0.50;;;8.20;99.90;;;;;;5081357;28;20505;-68
2023/04/01 12:02:27;;;;;;;;;;;8.20;99.90;;;;;;5048665;28;20067;-67
2023/04/01 12:05:17;;;;;;;1.27;0.50;;;8.20;99.90;;;;;;5096636;28;19961;-66
2023/04/01 12:07:55;;;;;;;0.68;0.30;;;8.20;99.90;;;;;;5082336;28;20031;-66
2023/04/01 12:10:55;;;;;;;0.77;0.25;;;8.20;99.90;;;;;;5083518;28;20027;-66
2023/04/01 12:13:54;;;;;;;0.68;0.40;;;8.30;99.90;;;;;;5081744;28;20036;-66
2023/04/01 12:16:43;;;;;;;1.25;0.40;;;8.40;99.90;;;;;;5077690;28;20029;-66
2023/04/01 12:19:09;;;;;;;1.75;0.50;;;8.40;99.90;;;;;;5073020;28;20280;-65
2023/04/01 12:21:46;;;;;;;1.00;0.60;;;8.40;99.90;;;;;;5079999;28;20036;-68
2023/04/01 12:24:24;;;;;;;2.50;0.57;;;8.40;99.90;;;;;;5082714;28;20359;-66
2023/04/01 12:27:13;;;;;;;0.75;0.38;;;8.40;99.90;;;;;;5085759;28;20052;-66
2023/04/01 12:30:14;;;;;;;1.17;0.38;;;8.50;99.90;;;;;;5098575;28;20024;-66
2023/04/01 12:32:45;;;;;;;1.52;0.45;;;8.40;99.90;;;;;;5070146;28;20024;-67
2023/04/01 12:35:30;;;;;;;0.80;0.30;;;8.50;99.90;;;;;;5100943;28;20032;-67
2023/04/01 12:38:05;;;;;;;3.63;0.80;;;8.50;99.90;;;;;;5098552;28;20031;-67
2023/04/01 12:40:37;;;;;;;2.50;0.40;;;8.60;99.90;;;;;;5091472;28;20115;-66
2023/04/01 12:43:38;;;;;;;1.25;0.47;;;8.60;99.90;;;;;;5090262;28;20523;-65
2023/04/01 12:46:45;;;;;;;3.45;0.50;;;8.60;99.90;;;;;;5053651;28;20425;-65
2023/04/01 12:49:46;;;;;;;0.93;0.30;;;8.60;99.90;;;;;;5083067;28;20083;-67
2023/04/01 12:52:30;;;;;;;1.40;0.30;;;8.60;99.90;;;;;;5082441;28;20024;-66
2023/04/01 12:54:55;;;;;;;0.50;0.15;;;8.60;99.90;;;;;;5083958;28;20082;-66
2023/04/01 12:57:48;;;;;;;0.40;0.28;;;8.60;99.90;;;;;;5090343;28;20055;-66
2023/04/01 13:00:20;;;;;;;3.97;0.30;;;8.70;99.90;;;;;;5072034;28;20443;-66
2023/04/01 13:03:18;;;;;;;0.70;0.22;;;8.60;99.90;;;;;;5089613;28;20050;-66
2023/04/01 13:05:49;;;;;;;0.68;0.30;;;8.60;99.90;;;;;;5078137;28;20063;-66
2023/04/01 13:08:40;;;;;;;1.27;0.32;;;8.60;99.90;;;;;;5068008;28;20169;-66
2023/04/01 13:11:44;;;;;;;0.95;0.40;;;8.70;99.90;;;;;;5090886;28;20085;-66
2023/04/01 13:14:34;;;;;;;3.13;0.20;;;8.70;99.90;;;;;;5082818;28;20040;-66
2023/04/01 13:17:09;;;;;;;1.93;0.60;;;8.70;99.90;;;;;;5067576;28;20896;-67
2023/04/01 13:19:37;;;;;;;1.45;0.50;;;8.70;99.90;;;;;;5090520;28;20036;-67
2023/04/01 13:22:16;;;;;;;1.65;0.47;;;8.70;99.90;;;;;;5079104;28;20047;-66
2023/04/01 13:25:14;;;;;;;0.60;0.35;;;8.70;99.90;;;;;;5076271;28;20024;-65
2023/04/01 13:27:58;;;;;;;1.45;0.70;;;8.70;99.90;;;;;;5077015;28;20047;-66
2023/04/01 13:30:44;;;;;;;1.27;0.50;;;8.70;99.90;;;;;;5089739;28;20476;-66
2023/04/01 13:33:32;;;;;;;2.42;0.40;;;8.70;99.90;;;;;;5080819;28;20081;-66
2023/04/01 13:36:37;;;;;;;2.38;0.30;;;8.70;99.90;;;;;;5086819;28;20021;-66
2023/04/01 13:39:05;;;;;;;2.47;0.30;;;8.70;99.90;;;;;;5086854;28;20059;-65
2023/04/01 13:42:11;;;;;;;0.93;0.38;;;8.60;99.90;;;;;;5071229;28;20131;-67
2023/04/01 13:45:02;;;;;;;0.60;0.30;;;8.60;99.90;;;;;;5069611;28;20009;-67
2023/04/01 13:47:59;;;;;;;2.90;0.47;;;8.60;99.90;;;;;;5066511;28;20107;-66
2023/04/01 13:51:00;;;;;;;0.75;0.38;;;8.60;99.90;;;;;;5088042;28;20024;-66
2023/04/01 13:53:44;;;;;;;;;;;8.60;99.90;;;;;;5085321;28;20042;-66
2023/04/01 13:56:29;;;;;;;0.85;0.40;;;8.60;99.90;;;;;;5089293;28;19908;-66
2023/04/01 13:59:09;;;;;;;0.70;0.30;;;8.60;99.90;;;;;;5085127;28;20883;-66
2023/04/01 14:01:49;;;;;;;1.00;0.47;;;8.70;99.90;;;;;;5080374;28;20024;-66
2023/04/01 14:04:42;;;;;;;0.25;0.20;;;8.70;99.90;;;;;;5085994;28;20032;-66
2023/04/01 14:07:32;;;;;;;1.92;0.40;;;8.60;99.90;;;;;;5076927;28;20452;-66
2023/04/01 14:10:07;;;;;;;1.60;0.35;;;8.70;99.90;;;;;;5086529;28;20644;-67
2023/04/01 14:12:58;;;;;;;3.83;0.40;;;8.70;99.90;;;;;;5088684;28;20372;-66
2023/04/01 14:15:42;;;;;;;0.63;0.20;;;8.60;99.90;;;;;;5087198;28;20035;-66
2023/04/01 14:18:45;;;;;;;0.25;0.13;;;8.60;99.90;;;;;;5090029;28;20104;-66
2023/04/01 14:21:31;;;;;;;0.60;0.17;;;8.60;99.90;;;;;;5090121;28;20434;-66
2023/04/01 14:24:56;;;;;;;1.58;0.20;;;8.60;99.90;;;;;;5089252;28;20016;-66
2023/04/01 14:28:01;;;;;;;0.70;0.30;;;8.50;99.90;;;;;;4990244;28;20148;-66
2023/04/01 14:30:45;;;;;;;0.75;0.20;;;8.40;99.90;;;;;;5006851;28;20125;-66
2023/04/01 14:33:37;;;;;;;0.57;0.25;;;8.40;99.90;;;;;;5078002;28;20173;-66
2023/04/01 14:36:40;;;;;;;0.43;0.22;;;8.40;99.90;;;;;;5086924;28;20025;-66
2023/04/01 14:39:33;;;;;;;1.70;0.40;;;8.30;99.90;;;;;;5068986;28;20032;-67
2023/04/01 14:42:20;;;;;;;0.93;0.30;;;8.30;99.90;;;;;;5076546;28;20024;-68
2023/04/01 14:45:07;;;;;;;3.08;0.40;;;8.20;99.90;;;;;;5082391;28;20491;-68
2023/04/01 14:48:05;;;;;;;1.95;0.40;;;8.20;99.90;;;;;;5077036;28;20035;-67
2023/04/01 14:50:44;;;;;;;0.70;0.30;;;8.20;99.90;;;;;;5058423;28;20368;-67
2023/04/01 14:53:24;;;;;;;1.08;0.32;;;8.30;99.90;;;;;;5085516;28;20068;-67
2023/04/01 14:55:53;;;;;;;0.70;0.30;;;8.30;99.90;;;;;;5083685;28;20436;-67
2023/04/01 14:58:27;;;;;;;0.68;0.30;;;8.40;99.90;;;;;;5088994;28;20050;-67
2023/04/01 15:00:55;;;;;;;2.85;0.50;;;8.40;99.90;;;;;;5087447;28;20531;-68
2023/04/01 15:03:32;;;;;;;1.17;0.50;;;8.40;99.90;;;;;;5085414;28;20047;-67
2023/04/01 15:06:31;;;;;;;0.85;0.45;;;8.50;99.90;;;;;;5085034;28;20035;-67
2023/04/01 15:09:38;;;;;;;1.00;0.50;;;8.40;99.90;;;;;;5081222;28;20161;-67
2023/04/01 15:12:26;;;;;;;1.65;0.50;;;8.40;99.90;;;;;;5004778;28;20296;-67
2023/04/01 15:15:01;;;;;;;2.22;0.60;;;8.40;99.90;;;;;;5085375;28;20353;-67
2023/04/01 15:17:52;;;;;;;2.83;0.60;;;8.40;99.90;;;;;;5084483;28;20111;-67
2023/04/01 15:20:30;;;;;;;1.48;0.80;;;8.30;99.90;;;;;;5083620;28;20016;-67
2023/04/01 15:23:25;;;;;;;2.60;0.90;;;8.40;99.90;;;;;;5070115;28;20088;-67
2023/04/01 15:25:50;;;;;;;2.70;1.10;;;8.40;99.90;;;;;;5082075;28;20032;-68
2023/04/01 15:28:36;;;;;;;2.45;0.85;;;8.40;99.90;;;;;;5084377;28;20078;-67
2023/04/01 15:31:21;;;;;;;2.60;1.00;;;8.30;99.90;;;;;;5085487;28;20047;-67
2023/04/01 15:33:55;;;;;;;2.38;0.77;;;8.30;99.90;;;;;;5083952;28;20483;-68
2023/04/01 15:36:27;;;;;;;1.95;0.95;;;8.30;99.90;;;;;;5086236;28;20020;-67
2023/04/01 15:39:01;;;;;;;1.58;0.80;;;8.30;99.90;;;;;;5084808;28;20020;-67
2023/04/01 15:41:35;;;;;;;1.88;0.65;;;8.30;99.90;;;;;;5087681;28;20020;-67
2023/04/01 15:44:02;;;;;;;2.45;0.60;;;8.30;99.90;;;;;;5072433;28;20020;-67
2023/04/01 15:46:39;;;;;;;0.88;0.50;;;8.30;99.90;;;;;;5074635;28;20047;-66
2023/04/01 15:49:11;;;;;;;0.90;0.50;;;8.40;99.90;;;;;;5070739;28;20257;-67
2023/04/01 15:51:58;;;;;;;1.75;0.60;;;8.30;99.90;;;;;;5075814;28;20024;-67
2023/04/01 15:54:43;;;;;;;3.70;0.57;;;8.30;99.90;;;;;;5068216;28;20025;-67
2023/04/01 15:57:24;;;;;;;1.17;0.50;;;8.30;99.90;;;;;;5087321;28;20085;-67
2023/04/01 16:00:17;;;;;;;3.03;0.50;;;8.30;99.90;;;;;;5083982;28;20103;-68
2023/04/01 16:03:09;;;;;;;0.47;0.28;;;8.30;99.90;;;;;;5068517;28;20368;-67
2023/04/01 16:06:08;;;;;;;0.40;0.25;;;8.30;99.90;;;;;;5085657;28;20205;-67
2023/04/01 16:08:56;;;;;;;0.70;0.30;;;8.20;99.90;;;;;;5085535;28;20032;-67
2023/04/01 16:11:45;;;;;;;1.33;0.40;;;8.20;99.90;;;;;;5068261;28;20066;-67
2023/04/01 16:14:24;;;;;;;4.78;0.60;;;8.20;99.90;;;;;;5069181;28;20028;-67
2023/04/01 16:17:12;;;;;;;2.08;0.80;;;8.10;99.90;;;;;;5088388;28;20431;-67
2023/04/01 16:19:52;;;;;;;1.20;0.60;;;8.10;99.90;;;;;;5070175;28;20123;-67
2023/04/01 16:22:34;;;;;;;1.48;0.60;;;8.10;99.90;;;;;;5091267;28;20023;-67
2023/04/01 16:25:29;;;;;;;1.35;0.60;;;8.10;99.90;;;;;;5083161;28;20668;-67
2023/04/01 16:28:24;;;;;;;4.13;0.80;;;8.10;99.90;;;;;;5077773;28;20044;-68
2023/04/01 16:31:15;;;;;;;1.42;0.80;;;8.00;99.90;;;;;;5082167;28;20472;-68
2023/04/01 16:33:43;;;;;;;3.92;1.08;;;8.10;99.90;;;;;;5082759;28;20421;-67
2023/04/01 16:36:36;;;;;;;3.28;0.90;;;8.10;99.90;;;;;;5084197;28;20128;-67
2023/04/01 16:39:17;;;;;;;2.22;0.80;;;8.10;99.90;;;;;;5082157;28;20119;-67
2023/04/01 16:42:05;;;;;;;1.48;0.50;;;8.20;99.90;;;;;;5062424;28;20107;-66
2023/04/01 16:45:05;;;;;;;1.90;0.57;;;8.20;99.90;;;;;;5070153;28;20324;-67
2023/04/01 16:47:35;;;;;;;1.65;0.57;;;8.20;99.90;;;;;;5048447;28;20044;-67
2023/04/01 16:50:07;;;;;;;1.45;0.63;;;8.10;99.90;;;;;;5076449;28;20032;-67
2023/04/01 16:53:11;;;;;;;1.05;0.32;;;8.10;99.90;;;;;;5090007;28;20028;-66
2023/04/01 16:55:45;;;;;;;4.55;0.50;;;8.10;99.90;;;;;;5079824;28;20065;-67
2023/04/01 16:58:21;;;;;;;2.00;0.85;;;8.10;99.90;;;;;;5090919;28;20349;-66
2023/04/01 17:00:58;;;;;;;1.30;0.47;;;8.10;99.90;;;;;;5077445;28;20099;-67
2023/04/01 17:03:31;;;;;;;0.98;0.52;;;8.10;99.90;;;;;;5091154;28;20036;-67
2023/04/01 17:06:28;;;;;;;1.63;0.60;;;8.10;99.90;;;;;;5078889;28;20114;-66
2023/04/01 17:09:15;;;;;;;3.28;0.50;;;8.10;99.90;;;;;;5067855;28;20060;-65
2023/04/01 17:11:53;;;;;;;1.50;0.57;;;8.10;99.90;;;;;;5065828;28;20028;-66
2023/04/01 17:14:56;;;;;;;1.27;0.60;;;8.00;99.90;;;;;;5068513;28;20481;-67
2023/04/01 17:17:33;;;;;;;2.75;0.60;;;8.00;99.90;;;;;;5069400;28;20492;-66
2023/04/01 17:20:27;;;;;;;1.98;0.90;;;8.00;99.90;;;;;;5088096;28;20051;-66
2023/04/01 17:23:01;;;;;;;1.77;0.75;;;8.00;99.90;;;;;;5075184;28;20036;-67
2023/04/01 17:25:41;;;;;;;1.85;0.80;;;8.00;99.90;;;;;;5078555;28;20028;-67
2023/04/01 17:28:13;;;;;;;1.67;0.80;;;8.00;99.90;;;;;;5084009;28;20062;-67
2023/04/01 17:30:53;;;;;;;2.95;1.30;;;8.00;99.90;;;;;;5088348;28;20101;-66
2023/04/01 17:33:53;;;;;;;5.43;0.93;;;8.00;99.90;;;;;;5086122;28;20108;-67
2023/04/01 17:36:25;;;;;;;4.17;0.73;;;8.00;99.90;;;;;;5084407;28;20491;-67
2023/04/01 17:39:28;;;;;;;1.80;0.95;;;8.00;99.90;;;;;;5085165;28;20031;-68
2023/04/01 17:42:10;;;;;;;1.38;0.90;;;8.00;99.90;;;;;;5086905;28;20032;-67
2023/04/01 17:44:58;;;;;;;2.08;0.80;;;8.00;99.90;;;;;;5087662;28;20114;-67
2023/04/01 17:47:52;;;;;;;2.50;0.80;;;8.00;99.90;;;;;;5064090;28;20047;-67
2023/04/01 17:50:55;;;;;;;3.92;0.70;;;8.00;99.90;;;;;;5062624;28;20017;-66
2023/04/01 17:53:42;;;;;;;1.95;0.93;;;8.00;99.90;;;;;;5066464;28;20480;-67
2023/04/01 17:56:20;;;;;;;2.50;1.00;;;7.90;99.90;;;;;;5084270;28;20024;-67
2023/04/01 17:59:04;;;;;;;2.60;1.15;;;7.90;99.90;;;;;;5079134;28;20051;-67
2023/04/01 18:01:36;;;;;;;3.72;1.02;;;7.90;99.90;;;;;;5086843;28;20020;-67
2023/04/01 18:04:21;;;;;;;4.38;1.25;;;7.90;99.90;;;;;;5087220;28;20024;-67
2023/04/01 18:07:17;;;;;;;3.60;1.48;;;7.90;99.90;;;;;;5080992;28;20021;-67
2023/04/01 18:09:56;;;;;;;3.50;1.35;;;7.90;99.90;;;;;;5076888;28;20032;-68
2023/04/01 18:12:35;;;;;;;2.83;1.33;;;7.90;99.90;;;;;;5086744;28;20039;-66
2023/04/01 18:15:07;;;;;;;4.80;1.42;;;7.90;99.90;;;;;;5078706;28;20455;-67
2023/04/01 18:18:00;;;;;;;3.58;1.55;;;7.90;99.90;;;;;;5089552;28;20093;-66
2023/04/01 18:20:32;;;;;;;5.20;1.40;;;7.90;99.90;;;;;;5086784;28;20077;-66
2023/04/01 18:23:26;;;;;;;3.85;1.48;;;7.90;99.90;;;;;;5073082;28;20336;-66
2023/04/01 18:26:05;;;;;;;2.80;1.60;;;7.90;99.90;;;;;;5078998;28;20119;-67
2023/04/01 18:28:34;;;;;;;4.30;1.90;;;7.90;99.90;;;;;;5068188;28;20051;-67
2023/04/01 18:31:02;;;;;;;3.92;1.98;;;7.80;99.90;;;;;;5077406;28;20799;-67
2023/04/01 18:33:41;;;;;;;5.47;1.85;;;7.90;99.90;;;;;;5087686;28;20020;-67
2023/04/01 18:36:18;;;;;;;4.55;1.83;;;7.90;99.90;;;;;;5086892;28;20057;-67
2023/04/01 18:39:12;;;;;;;3.95;1.90;;;7.90;99.90;;;;;;5082506;28;20091;-66
2023/04/01 18:41:59;;;;;;;3.72;1.77;;;7.90;99.90;;;;;;5036646;28;20036;-66
2023/04/01 18:44:47;;;;;;;6.40;1.70;;;7.90;99.90;;;;;;5075549;28;20034;-67
2023/04/01 18:47:25;;;;;;;5.28;1.55;;;7.90;99.90;;;;;;5086354;28;20130;-66